createdAt,value
2022-08-05T00:00:54.992Z,0.00
2022-08-05T00:01:54.958Z,0.00
2022-08-05T00:02:55.973Z,0.00
2022-08-05T00:03:54.861Z,0.00
2022-08-05T00:04:55.492Z,0.00
2022-08-05T00:06:06.702Z,0.00
2022-08-05T00:06:55.819Z,0.00
2022-08-05T00:08:00.213Z,0.00
2022-08-05T00:08:56.640Z,0.00
2022-08-05T00:09:54.860Z,0.00
2022-08-05T00:10:54.791Z,0.00
2022-08-05T00:11:56.171Z,0.00
2022-08-05T00:12:57.041Z,0.00
2022-08-05T00:13:54.743Z,0.00
2022-08-05T00:14:54.733Z,0.00
2022-08-05T00:15:58.001Z,0.00
2022-08-05T00:16:54.822Z,0.00
2022-08-05T00:17:54.823Z,0.00
2022-08-05T00:18:54.705Z,0.00
2022-08-05T00:20:02.646Z,0.00
2022-08-05T00:20:55.734Z,0.00
2022-08-05T00:21:54.686Z,0.00
2022-08-05T00:22:59.569Z,0.00
2022-08-05T00:24:10.478Z,0.00
2022-08-05T00:24:55.624Z,0.00
2022-08-05T00:25:54.614Z,0.00
2022-08-05T00:26:54.589Z,0.00
2022-08-05T00:27:54.622Z,0.00
2022-08-05T00:28:54.588Z,0.00
2022-08-05T00:29:54.576Z,0.00
2022-08-05T00:30:54.544Z,0.00
2022-08-05T00:32:12.410Z,0.00
2022-08-05T00:32:55.515Z,0.00
2022-08-05T00:34:55.133Z,0.00
2022-08-05T00:35:06.321Z,0.00
2022-08-05T00:36:15.837Z,0.00
2022-08-05T00:37:13.074Z,0.00
2022-08-05T00:37:55.543Z,0.00
2022-08-05T00:38:54.591Z,0.00
2022-08-05T00:39:57.952Z,0.00
2022-08-05T00:40:54.831Z,0.00
2022-08-05T00:41:55.794Z,0.00
2022-08-05T00:42:54.417Z,0.00
2022-08-05T00:43:54.415Z,0.00
2022-08-05T00:44:54.484Z,0.00
2022-08-05T00:45:54.575Z,0.00
2022-08-05T00:47:02.052Z,0.00
2022-08-05T00:47:57.699Z,0.00
2022-08-05T00:48:55.339Z,0.00
2022-08-05T00:49:54.336Z,0.00
2022-08-05T00:50:54.368Z,0.00
2022-08-05T00:51:54.345Z,0.00
2022-08-05T00:52:55.283Z,0.00
2022-08-05T00:54:02.086Z,0.00
2022-08-05T00:54:55.995Z,0.00
2022-08-05T00:55:54.451Z,0.00
2022-08-05T00:56:54.476Z,0.00
2022-08-05T00:57:55.515Z,0.00
2022-08-05T00:58:54.334Z,0.00
2022-08-05T00:59:54.272Z,0.00
2022-08-05T01:00:54.459Z,0.00
2022-08-05T01:01:54.265Z,0.00
2022-08-05T01:02:54.399Z,0.00
2022-08-05T01:03:54.301Z,0.00
2022-08-05T01:04:54.210Z,0.00
2022-08-05T01:05:54.854Z,0.00
2022-08-05T01:06:54.956Z,0.00
2022-08-05T01:08:31.645Z,0.00
2022-08-05T01:08:55.154Z,0.00
2022-08-05T01:09:55.693Z,0.00
2022-08-05T01:10:54.107Z,0.00
2022-08-05T01:11:54.184Z,0.00
2022-08-05T01:13:05.314Z,0.00
2022-08-05T01:13:57.720Z,0.00
2022-08-05T01:14:54.196Z,0.00
2022-08-05T01:15:54.210Z,0.00
2022-08-05T01:16:54.038Z,0.00
2022-08-05T01:17:54.068Z,0.00
2022-08-05T01:18:56.555Z,0.00
2022-08-05T01:20:01.964Z,0.00
2022-08-05T01:20:55.031Z,0.00
2022-08-05T01:21:54.209Z,0.00
2022-08-05T01:22:54.101Z,0.00
2022-08-05T01:23:54.027Z,0.00
2022-08-05T01:24:53.998Z,0.00
2022-08-05T01:25:54.140Z,0.00
2022-08-05T01:26:53.959Z,0.00
2022-08-05T01:27:55.360Z,0.00
2022-08-05T01:28:53.918Z,0.00
2022-08-05T01:29:54.662Z,0.00
2022-08-05T01:30:55.181Z,0.00
2022-08-05T01:31:53.942Z,0.00
2022-08-05T01:32:54.868Z,0.00
2022-08-05T01:33:53.917Z,0.00
2022-08-05T01:34:53.972Z,0.00
2022-08-05T01:35:53.901Z,0.00
2022-08-05T01:36:53.910Z,0.00
2022-08-05T01:37:54.666Z,0.00
2022-08-05T01:38:53.843Z,0.00
2022-08-05T01:39:53.915Z,0.00
2022-08-05T01:40:53.791Z,0.00
2022-08-05T01:41:53.761Z,0.00
2022-08-05T01:42:53.755Z,0.00
2022-08-05T01:43:53.794Z,0.00
2022-08-05T01:44:54.655Z,0.00
2022-08-05T01:45:56.566Z,0.00
2022-08-05T01:46:53.835Z,0.00
2022-08-05T01:47:54.533Z,0.00
2022-08-05T01:48:53.690Z,0.00
2022-08-05T01:50:02.078Z,0.00
2022-08-05T01:50:54.680Z,0.00
2022-08-05T01:51:53.670Z,0.00
2022-08-05T01:52:53.651Z,0.00
2022-08-05T01:53:57.467Z,0.00
2022-08-05T01:54:54.629Z,0.00
2022-08-05T01:55:53.602Z,0.00
2022-08-05T01:58:12.247Z,0.00
2022-08-05T01:58:12.974Z,0.00
2022-08-05T01:58:54.571Z,0.00
2022-08-05T01:59:53.562Z,0.00
2022-08-05T02:00:53.663Z,0.00
2022-08-05T02:01:54.828Z,0.00
2022-08-05T02:02:55.014Z,0.00
2022-08-05T02:03:53.523Z,0.00
2022-08-05T02:04:53.513Z,0.00
2022-08-05T02:05:53.568Z,0.00
2022-08-05T02:06:54.492Z,0.00
2022-08-05T02:07:56.266Z,0.00
2022-08-05T02:08:58.254Z,0.00
2022-08-05T02:09:53.460Z,0.00
2022-08-05T02:10:53.475Z,0.00
2022-08-05T02:11:53.422Z,0.00
2022-08-05T02:12:53.423Z,0.00
2022-08-05T02:13:54.107Z,0.00
2022-08-05T02:14:53.413Z,0.00
2022-08-05T02:15:53.386Z,0.00
2022-08-05T02:16:53.530Z,0.00
2022-08-05T02:18:28.825Z,0.00
2022-08-05T02:18:54.363Z,0.00
2022-08-05T02:19:53.335Z,0.00
2022-08-05T02:20:53.354Z,0.00
2022-08-05T02:21:53.345Z,0.00
2022-08-05T02:22:53.314Z,0.00
2022-08-05T02:23:53.293Z,0.00
2022-08-05T02:24:53.303Z,0.00
2022-08-05T02:25:53.283Z,0.00
2022-08-05T02:26:54.884Z,0.00
2022-08-05T02:27:59.289Z,0.00
2022-08-05T02:28:54.253Z,0.00
2022-08-05T02:29:59.408Z,0.00
2022-08-05T02:30:56.553Z,0.00
2022-08-05T02:31:53.205Z,0.00
2022-08-05T02:32:53.214Z,0.00
2022-08-05T02:33:57.399Z,0.00
2022-08-05T02:34:54.903Z,0.00
2022-08-05T02:35:56.213Z,0.00
2022-08-05T02:36:54.164Z,0.00
2022-08-05T02:37:54.111Z,0.00
2022-08-05T02:38:54.010Z,0.00
2022-08-05T02:39:53.165Z,0.00
2022-08-05T02:40:54.098Z,0.00
2022-08-05T02:42:00.916Z,0.00
2022-08-05T02:42:54.333Z,0.00
2022-08-05T02:44:06.524Z,0.00
2022-08-05T02:44:54.074Z,0.00
2022-08-05T02:45:54.001Z,0.00
2022-08-05T02:46:58.892Z,0.00
2022-08-05T02:48:11.486Z,0.00
2022-08-05T02:48:54.035Z,0.00
2022-08-05T02:49:53.025Z,0.00
2022-08-05T02:50:53.016Z,0.00
2022-08-05T02:52:03.946Z,0.00
2022-08-05T02:52:54.029Z,0.00
2022-08-05T02:53:54.698Z,0.00
2022-08-05T02:54:52.975Z,0.00
2022-08-05T02:55:59.532Z,0.00
2022-08-05T02:56:53.947Z,0.00
2022-08-05T02:58:12.348Z,0.00
2022-08-05T02:58:53.925Z,0.00
2022-08-05T02:59:52.945Z,0.00
2022-08-05T03:00:53.695Z,0.00
2022-08-05T03:01:53.439Z,0.00
2022-08-05T03:02:52.886Z,0.00
2022-08-05T03:04:04.395Z,0.00
2022-08-05T03:04:53.866Z,0.00
2022-08-05T03:06:55.670Z,0.00
2022-08-05T03:06:59.419Z,0.00
2022-08-05T03:08:06.828Z,0.00
2022-08-05T03:08:53.807Z,0.00
2022-08-05T03:09:52.828Z,0.00
2022-08-05T03:11:02.333Z,0.00
2022-08-05T03:11:57.851Z,0.00
2022-08-05T03:12:52.766Z,0.00
2022-08-05T03:14:03.053Z,0.00
2022-08-05T03:14:53.746Z,0.00
2022-08-05T03:15:52.717Z,0.00
2022-08-05T03:16:53.521Z,0.00
2022-08-05T03:17:53.987Z,0.00
2022-08-05T03:18:52.708Z,0.00
2022-08-05T03:19:52.688Z,0.00
2022-08-05T03:20:52.707Z,0.00
2022-08-05T03:21:53.506Z,0.00
2022-08-05T03:22:57.247Z,0.00
2022-08-05T03:23:52.627Z,0.00
2022-08-05T03:24:52.643Z,0.00
2022-08-05T03:26:05.005Z,0.00
2022-08-05T03:26:53.618Z,0.00
2022-08-05T03:27:58.931Z,0.00
2022-08-05T03:28:53.595Z,0.00
2022-08-05T03:30:07.339Z,0.00
2022-08-05T03:30:53.569Z,0.00
2022-08-05T03:31:56.978Z,0.00
2022-08-05T03:32:53.638Z,0.00
2022-08-05T03:33:52.985Z,0.00
2022-08-05T03:34:52.528Z,0.00
2022-08-05T03:35:52.500Z,0.00
2022-08-05T03:36:52.869Z,0.00
2022-08-05T03:37:53.521Z,0.00
2022-08-05T03:38:53.383Z,0.00
2022-08-05T03:39:58.674Z,0.00
2022-08-05T03:40:53.506Z,0.00
2022-08-05T03:41:52.618Z,0.00
2022-08-05T03:42:53.240Z,0.00
2022-08-05T03:44:09.121Z,0.00
2022-08-05T03:44:53.417Z,0.00
2022-08-05T03:45:57.216Z,0.00
2022-08-05T03:46:53.389Z,0.00
2022-08-05T03:47:56.833Z,0.00
2022-08-05T03:48:53.377Z,0.00
2022-08-05T03:49:52.886Z,0.00
2022-08-05T03:50:52.401Z,0.00
2022-08-05T03:52:48.288Z,0.00
2022-08-05T03:55:51.936Z,0.00
2022-08-05T03:55:53.789Z,0.00
2022-08-05T03:56:00.949Z,0.00
2022-08-05T03:56:05.970Z,0.00
2022-08-05T03:56:53.280Z,0.00
2022-08-05T03:57:52.268Z,0.00
2022-08-05T03:58:52.261Z,0.00
2022-08-05T03:59:55.030Z,0.00
2022-08-05T04:00:52.572Z,0.00
2022-08-05T04:01:52.357Z,0.00
2022-08-05T04:02:58.678Z,0.00
2022-08-05T04:04:09.409Z,0.00
2022-08-05T04:04:53.600Z,0.00
2022-08-05T04:05:52.251Z,0.00
2022-08-05T04:06:52.185Z,0.00
2022-08-05T04:07:58.017Z,0.00
2022-08-05T04:08:53.251Z,0.00
2022-08-05T04:09:53.503Z,0.00
2022-08-05T04:10:52.131Z,0.00
2022-08-05T04:11:52.514Z,0.00
2022-08-05T04:12:52.111Z,0.00
2022-08-05T04:13:53.583Z,0.00
2022-08-05T04:14:52.091Z,0.00
2022-08-05T04:16:03.393Z,0.00
2022-08-05T04:16:53.061Z,0.00
2022-08-05T04:17:56.289Z,0.00
2022-08-05T04:18:53.935Z,0.00
2022-08-05T04:19:54.561Z,0.00
2022-08-05T04:20:53.024Z,0.00
2022-08-05T04:22:08.320Z,0.00
2022-08-05T04:22:53.002Z,0.00
2022-08-05T04:23:57.137Z,0.00
2022-08-05T04:24:53.195Z,0.00
2022-08-05T04:26:00.497Z,0.00
2022-08-05T04:26:52.953Z,0.00
2022-08-05T04:27:57.227Z,0.00
2022-08-05T04:28:52.935Z,0.00
2022-08-05T04:29:51.904Z,0.00
2022-08-05T04:30:51.922Z,0.00
2022-08-05T04:31:51.903Z,0.00
2022-08-05T04:32:51.903Z,0.00
2022-08-05T04:34:18.975Z,0.00
2022-08-05T04:34:52.872Z,0.00
2022-08-05T04:36:09.500Z,5.62
2022-08-05T04:36:52.852Z,5.62
2022-08-05T04:38:02.829Z,5.62
2022-08-05T04:38:52.843Z,5.62
2022-08-05T04:39:52.905Z,5.62
2022-08-05T04:40:51.803Z,5.62
2022-08-05T04:41:52.704Z,5.62
2022-08-05T04:42:51.783Z,5.62
2022-08-05T04:43:52.128Z,5.62
2022-08-05T04:44:51.763Z,5.62
2022-08-05T04:45:54.953Z,0.00
2022-08-05T04:46:51.873Z,5.62
2022-08-05T04:47:51.714Z,0.00
2022-08-05T04:48:51.761Z,0.00
2022-08-05T04:50:02.582Z,5.62
2022-08-05T04:51:03.593Z,5.62
2022-08-05T04:52:00.460Z,5.62
2022-08-05T04:52:52.691Z,5.62
2022-08-05T04:53:51.653Z,5.62
2022-08-05T04:54:51.645Z,5.62
2022-08-05T04:56:14.812Z,5.62
2022-08-05T04:56:56.264Z,5.62
2022-08-05T04:57:54.234Z,5.62
2022-08-05T04:58:51.596Z,5.62
2022-08-05T04:59:51.576Z,5.62
2022-08-05T05:00:51.597Z,5.62
2022-08-05T05:02:35.012Z,5.62
2022-08-05T05:02:52.605Z,5.62
2022-08-05T05:03:51.976Z,5.62
2022-08-05T05:04:51.599Z,11.25
2022-08-05T05:06:39.351Z,11.25
2022-08-05T05:06:57.686Z,11.25
2022-08-05T05:07:52.879Z,5.62
2022-08-05T05:08:51.515Z,5.62
2022-08-05T05:09:51.466Z,5.62
2022-08-05T05:10:56.205Z,5.62
2022-08-05T05:11:53.068Z,5.62
2022-08-05T05:12:51.455Z,5.62
2022-08-05T05:13:51.436Z,5.62
2022-08-05T05:14:51.484Z,11.25
2022-08-05T05:16:00.508Z,11.25
2022-08-05T05:16:52.397Z,11.25
2022-08-05T05:17:56.764Z,16.88
2022-08-05T05:19:16.402Z,16.88
2022-08-05T05:19:52.357Z,22.50
2022-08-05T05:20:51.397Z,28.12
2022-08-05T05:21:51.337Z,28.12
2022-08-05T05:22:51.337Z,28.12
2022-08-05T05:24:04.003Z,28.12
2022-08-05T05:24:57.842Z,28.12
2022-08-05T05:25:52.296Z,33.75
2022-08-05T05:26:51.941Z,33.75
2022-08-05T05:27:54.018Z,33.75
2022-08-05T05:28:51.284Z,33.75
2022-08-05T05:30:03.868Z,39.38
2022-08-05T05:30:52.409Z,39.38
2022-08-05T05:31:51.238Z,39.38
2022-08-05T05:32:51.228Z,39.38
2022-08-05T05:33:59.632Z,45.00
2022-08-05T05:34:52.454Z,45.00
2022-08-05T05:35:51.198Z,50.62
2022-08-05T05:36:51.370Z,50.62
2022-08-05T05:38:00.214Z,56.25
2022-08-05T05:38:52.177Z,56.25
2022-08-05T05:39:51.175Z,56.25
2022-08-05T05:40:51.861Z,56.25
2022-08-05T05:41:54.300Z,56.25
2022-08-05T05:42:51.181Z,50.62
2022-08-05T05:43:57.549Z,50.62
2022-08-05T05:44:52.411Z,50.62
2022-08-05T05:45:52.120Z,50.62
2022-08-05T05:46:51.212Z,45.00
2022-08-05T05:48:06.464Z,50.62
2022-08-05T05:48:52.369Z,50.62
2022-08-05T05:49:56.977Z,56.25
2022-08-05T05:50:52.022Z,56.25
2022-08-05T05:51:51.176Z,56.25
2022-08-05T05:52:51.010Z,50.62
2022-08-05T05:53:58.122Z,56.25
2022-08-05T05:54:51.971Z,56.25
2022-08-05T05:56:00.656Z,61.88
2022-08-05T05:56:51.940Z,61.88
2022-08-05T05:57:52.661Z,73.12
2022-08-05T05:58:50.940Z,78.75
2022-08-05T05:59:50.931Z,78.75
2022-08-05T06:00:50.910Z,78.75
2022-08-05T06:01:57.039Z,56.25
2022-08-05T06:02:51.880Z,56.25
2022-08-05T06:04:00.584Z,61.88
2022-08-05T06:04:51.894Z,61.88
2022-08-05T06:05:54.135Z,50.62
2022-08-05T06:06:50.889Z,45.00
2022-08-05T06:08:01.254Z,45.00
2022-08-05T06:08:51.810Z,45.00
2022-08-05T06:10:00.917Z,61.88
2022-08-05T06:10:52.788Z,73.12
2022-08-05T06:12:02.023Z,84.38
2022-08-05T06:12:51.762Z,84.38
2022-08-05T06:13:54.012Z,78.75
2022-08-05T06:14:51.832Z,84.38
2022-08-05T06:16:31.451Z,78.75
2022-08-05T06:16:51.801Z,61.88
2022-08-05T06:17:53.638Z,61.88
2022-08-05T06:18:50.703Z,61.88
2022-08-05T06:19:56.733Z,73.12
2022-08-05T06:20:54.189Z,73.12
2022-08-05T06:21:50.690Z,78.75
2022-08-05T06:22:50.661Z,90.00
2022-08-05T06:23:50.661Z,95.62
2022-08-05T06:24:50.641Z,106.88
2022-08-05T06:26:12.495Z,106.88
2022-08-05T06:26:53.306Z,123.75
2022-08-05T06:28:12.714Z,135.00
2022-08-05T06:28:51.622Z,140.62
2022-08-05T06:30:04.323Z,140.62
2022-08-05T06:30:51.581Z,106.88
2022-08-05T06:31:50.733Z,90.00
2022-08-05T06:32:50.943Z,95.62
2022-08-05T06:34:07.432Z,95.62
2022-08-05T06:34:53.325Z,95.62
2022-08-05T06:36:07.829Z,101.25
2022-08-05T06:36:57.023Z,101.25
2022-08-05T06:37:58.382Z,95.62
2022-08-05T06:38:51.516Z,95.62
2022-08-05T06:39:50.482Z,90.00
2022-08-05T06:40:50.503Z,84.38
2022-08-05T06:41:50.584Z,90.00
2022-08-05T06:42:52.185Z,101.25
2022-08-05T06:43:59.266Z,106.88
2022-08-05T06:44:51.424Z,106.88
2022-08-05T06:46:06.753Z,112.50
2022-08-05T06:46:51.395Z,118.12
2022-08-05T06:48:36.208Z,118.12
2022-08-05T06:48:56.568Z,95.62
2022-08-05T06:50:00.657Z,84.38
2022-08-05T06:50:51.345Z,84.38
2022-08-05T06:51:50.454Z,78.75
2022-08-05T06:53:03.539Z,84.38
2022-08-05T06:53:53.349Z,67.50
2022-08-05T06:54:52.158Z,84.38
2022-08-05T06:55:50.371Z,95.62
2022-08-05T06:56:54.671Z,106.88
2022-08-05T06:58:03.003Z,106.88
2022-08-05T06:58:51.255Z,101.25
2022-08-05T06:59:55.081Z,95.62
2022-08-05T07:00:51.411Z,84.38
2022-08-05T07:01:52.766Z,61.88
2022-08-05T07:02:53.639Z,73.12
2022-08-05T07:03:50.284Z,61.88
2022-08-05T07:04:50.205Z,33.75
2022-08-05T07:05:50.215Z,39.38
2022-08-05T07:06:50.559Z,45.00
2022-08-05T07:07:50.327Z,50.62
2022-08-05T07:08:51.903Z,45.00
2022-08-05T07:09:58.341Z,56.25
2022-08-05T07:10:52.779Z,67.50
2022-08-05T07:11:51.725Z,73.12
2022-08-05T07:12:50.106Z,84.38
2022-08-05T07:13:58.382Z,112.50
2022-08-05T07:14:51.079Z,112.50
2022-08-05T07:16:02.007Z,118.12
2022-08-05T07:18:01.237Z,95.62
2022-08-05T07:18:01.835Z,78.75
2022-08-05T07:18:51.040Z,95.62
2022-08-05T07:20:32.301Z,123.75
2022-08-05T07:20:51.046Z,95.62
2022-08-05T07:22:00.421Z,95.62
2022-08-05T07:22:51.240Z,95.62
2022-08-05T07:23:52.193Z,95.62
2022-08-05T07:24:52.427Z,90.00
2022-08-05T07:25:56.022Z,84.38
2022-08-05T07:26:50.988Z,106.88
2022-08-05T07:27:58.852Z,112.50
2022-08-05T07:28:50.938Z,101.25
2022-08-05T07:30:27.196Z,101.25
2022-08-05T07:30:52.955Z,95.62
2022-08-05T07:31:55.072Z,73.12
2022-08-05T07:32:53.435Z,56.25
2022-08-05T07:33:49.992Z,61.88
2022-08-05T07:34:50.692Z,73.12
2022-08-05T07:36:01.877Z,101.25
2022-08-05T07:36:51.347Z,101.25
2022-08-05T07:37:50.039Z,90.00
2022-08-05T07:38:49.828Z,67.50
2022-08-05T07:40:25.952Z,101.25
2022-08-05T07:40:55.715Z,90.00
2022-08-05T07:42:13.331Z,90.00
2022-08-05T07:42:50.789Z,90.00
2022-08-05T07:43:49.787Z,95.62
2022-08-05T07:44:50.501Z,78.75
2022-08-05T07:45:56.993Z,56.25
2022-08-05T07:46:50.732Z,56.25
2022-08-05T07:47:50.453Z,45.00
2022-08-05T07:49:02.591Z,39.38
2022-08-05T07:49:54.211Z,39.38
2022-08-05T07:50:50.426Z,39.38
2022-08-05T07:51:54.336Z,50.62
2022-08-05T07:52:50.680Z,50.62
2022-08-05T07:53:50.548Z,50.62
2022-08-05T07:54:49.661Z,45.00
2022-08-05T07:56:05.287Z,39.38
2022-08-05T07:57:14.552Z,39.38
2022-08-05T07:57:58.833Z,56.25
2022-08-05T07:58:57.786Z,61.88
2022-08-05T07:59:50.620Z,84.38
2022-08-05T08:00:50.509Z,101.25
2022-08-05T08:01:51.981Z,101.25
2022-08-05T08:03:15.150Z,90.00
2022-08-05T08:03:51.421Z,73.12
2022-08-05T08:04:49.907Z,45.00
2022-08-05T08:05:50.065Z,33.75
2022-08-05T08:06:49.583Z,33.75
2022-08-05T08:07:59.053Z,39.38
2022-08-05T08:08:50.792Z,73.12
2022-08-05T08:09:49.564Z,73.12
2022-08-05T08:10:49.579Z,67.50
2022-08-05T08:11:54.353Z,95.62
2022-08-05T08:12:51.402Z,118.12
2022-08-05T08:14:00.825Z,90.00
2022-08-05T08:14:50.453Z,56.25
2022-08-05T08:16:34.643Z,50.62
2022-08-05T08:16:53.438Z,50.62
2022-08-05T08:17:52.372Z,56.25
2022-08-05T08:18:50.200Z,101.25
2022-08-05T08:20:10.450Z,135.00
2022-08-05T08:21:03.094Z,146.25
2022-08-05T08:21:50.417Z,180.00
2022-08-05T08:22:49.396Z,185.62
2022-08-05T08:24:03.779Z,208.12
2022-08-05T08:24:51.813Z,208.12
2022-08-05T08:26:00.611Z,219.38
2022-08-05T08:26:50.347Z,208.12
2022-08-05T08:27:51.223Z,151.88
2022-08-05T08:28:55.172Z,151.88
2022-08-05T08:30:06.016Z,146.25
2022-08-05T08:30:52.224Z,129.38
2022-08-05T08:31:49.277Z,123.75
2022-08-05T08:32:49.352Z,106.88
2022-08-05T08:33:51.767Z,118.12
2022-08-05T08:34:49.240Z,112.50
2022-08-05T08:35:52.462Z,123.75
2022-08-05T08:36:54.839Z,106.88
2022-08-05T08:37:53.582Z,95.62
2022-08-05T08:38:53.260Z,95.62
2022-08-05T08:39:49.652Z,90.00
2022-08-05T08:40:51.784Z,112.50
2022-08-05T08:41:50.790Z,90.00
2022-08-05T08:42:50.649Z,168.75
2022-08-05T08:45:22.306Z,191.25
2022-08-05T08:45:22.401Z,219.38
2022-08-05T08:45:50.245Z,225.00
2022-08-05T08:46:49.095Z,225.00
2022-08-05T08:48:07.113Z,129.38
2022-08-05T08:49:06.121Z,78.75
2022-08-05T08:50:05.840Z,56.25
2022-08-05T08:51:03.599Z,45.00
2022-08-05T08:52:03.098Z,45.00
2022-08-05T08:52:51.766Z,39.38
2022-08-05T08:53:49.756Z,33.75
2022-08-05T08:54:49.514Z,33.75
2022-08-05T08:56:03.818Z,50.62
2022-08-05T08:56:50.760Z,39.38
2022-08-05T08:57:58.427Z,90.00
2022-08-05T08:58:50.592Z,95.62
2022-08-05T08:59:49.701Z,95.62
2022-08-05T09:00:48.969Z,112.50
2022-08-05T09:01:57.246Z,157.50
2022-08-05T09:02:50.682Z,118.12
2022-08-05T09:03:54.386Z,84.38
2022-08-05T09:05:16.331Z,84.38
2022-08-05T09:06:07.987Z,73.12
2022-08-05T09:06:50.010Z,56.25
2022-08-05T09:07:57.079Z,45.00
2022-08-05T09:08:49.912Z,50.62
2022-08-05T09:09:48.934Z,78.75
2022-08-05T09:10:49.258Z,112.50
2022-08-05T09:11:53.649Z,106.88
2022-08-05T09:12:50.983Z,101.25
2022-08-05T09:14:09.165Z,84.38
2022-08-05T09:14:56.456Z,67.50
2022-08-05T09:15:49.796Z,101.25
2022-08-05T09:16:49.117Z,95.62
2022-08-05T09:17:49.824Z,73.12
2022-08-05T09:18:48.739Z,56.25
2022-08-05T09:20:01.723Z,56.25
2022-08-05T09:20:50.488Z,56.25
2022-08-05T09:22:23.490Z,39.38
2022-08-05T09:22:51.896Z,39.38
2022-08-05T09:23:48.688Z,56.25
2022-08-05T09:24:48.669Z,90.00
2022-08-05T09:26:02.192Z,78.75
2022-08-05T09:26:51.761Z,50.62
2022-08-05T09:28:03.934Z,50.62
2022-08-05T09:28:49.673Z,73.12
2022-08-05T09:29:48.659Z,84.38
2022-08-05T09:30:49.402Z,112.50
2022-08-05T09:32:46.433Z,140.62
2022-08-05T09:32:51.791Z,168.75
2022-08-05T09:33:49.594Z,174.38
2022-08-05T09:34:48.562Z,202.50
2022-08-05T09:35:48.574Z,281.25
2022-08-05T09:36:55.589Z,331.88
2022-08-05T09:38:17.389Z,292.50
2022-08-05T09:38:49.504Z,303.75
2022-08-05T09:39:52.422Z,286.88
2022-08-05T09:40:52.182Z,286.88
2022-08-05T09:41:56.149Z,309.38
2022-08-05T09:42:49.471Z,298.12
2022-08-05T09:43:49.424Z,309.38
2022-08-05T09:44:49.456Z,320.62
2022-08-05T09:46:06.757Z,337.50
2022-08-05T09:46:53.500Z,337.50
2022-08-05T09:47:56.128Z,315.00
2022-08-05T09:49:06.467Z,309.38
2022-08-05T09:50:01.632Z,298.12
2022-08-05T09:50:49.392Z,286.88
2022-08-05T09:51:50.231Z,275.62
2022-08-05T09:52:52.969Z,236.25
2022-08-05T09:53:54.951Z,196.88
2022-08-05T09:54:49.393Z,157.50
2022-08-05T09:55:58.343Z,163.12
2022-08-05T09:56:51.846Z,180.00
2022-08-05T09:57:49.028Z,270.00
2022-08-05T09:58:50.315Z,320.62
2022-08-05T09:59:48.832Z,315.00
2022-08-05T10:00:48.838Z,264.38
2022-08-05T10:01:48.281Z,264.38
2022-08-05T10:02:49.445Z,202.50
2022-08-05T10:03:59.054Z,180.00
2022-08-05T10:04:50.137Z,180.00
2022-08-05T10:05:48.984Z,191.25
2022-08-05T10:06:49.808Z,208.12
2022-08-05T10:08:11.119Z,230.62
2022-08-05T10:08:53.802Z,247.50
2022-08-05T10:09:49.933Z,196.88
2022-08-05T10:10:50.401Z,219.38
2022-08-05T10:11:50.013Z,202.50
2022-08-05T10:12:49.804Z,191.25
2022-08-05T10:13:49.178Z,196.88
2022-08-05T10:14:48.147Z,202.50
2022-08-05T10:15:48.134Z,185.62
2022-08-05T10:16:52.857Z,191.25
2022-08-05T10:17:56.856Z,185.62
2022-08-05T10:18:49.830Z,208.12
2022-08-05T10:20:03.948Z,213.75
2022-08-05T10:20:49.083Z,219.38
2022-08-05T10:21:48.066Z,219.38
2022-08-05T10:22:48.750Z,219.38
2022-08-05T10:24:00.015Z,196.88
2022-08-05T10:24:49.056Z,202.50
2022-08-05T10:25:48.029Z,247.50
2022-08-05T10:26:51.207Z,281.25
2022-08-05T10:28:13.340Z,253.12
2022-08-05T10:28:49.014Z,253.12
2022-08-05T10:30:41.227Z,236.25
2022-08-05T10:32:48.228Z,241.88
2022-08-05T10:32:53.996Z,264.38
2022-08-05T10:33:00.041Z,315.00
2022-08-05T10:33:54.109Z,247.50
2022-08-05T10:34:47.937Z,225.00
2022-08-05T10:35:59.023Z,236.25
2022-08-05T10:36:49.599Z,202.50
2022-08-05T10:37:47.868Z,168.75
2022-08-05T10:38:47.857Z,140.62
2022-08-05T10:40:03.219Z,135.00
2022-08-05T10:40:48.868Z,196.88
2022-08-05T10:41:47.978Z,236.25
2022-08-05T10:42:47.827Z,286.88
2022-08-05T10:43:47.967Z,264.38
2022-08-05T10:44:47.976Z,247.50
2022-08-05T10:45:48.006Z,253.12
2022-08-05T10:46:51.041Z,253.12
2022-08-05T10:48:30.158Z,230.62
2022-08-05T10:48:52.904Z,230.62
2022-08-05T10:50:31.660Z,230.62
2022-08-05T10:50:48.728Z,247.50
2022-08-05T10:51:59.804Z,264.38
2022-08-05T10:52:49.707Z,253.12
2022-08-05T10:53:48.482Z,270.00
2022-08-05T10:54:56.122Z,275.62
2022-08-05T10:56:05.138Z,292.50
2022-08-05T10:56:49.391Z,309.38
2022-08-05T10:57:51.245Z,303.75
2022-08-05T10:58:48.578Z,292.50
2022-08-05T11:00:02.043Z,275.62
2022-08-05T11:00:55.437Z,281.25
2022-08-05T11:01:54.016Z,286.88
2022-08-05T11:02:50.678Z,258.75
2022-08-05T11:03:47.692Z,343.12
2022-08-05T11:04:47.579Z,365.62
2022-08-05T11:05:47.550Z,331.88
2022-08-05T11:06:47.596Z,202.50
2022-08-05T11:08:01.330Z,168.75
2022-08-05T11:08:48.544Z,146.25
2022-08-05T11:09:47.562Z,174.38
2022-08-05T11:10:50.363Z,185.62
2022-08-05T11:11:53.613Z,163.12
2022-08-05T11:12:54.352Z,219.38
2022-08-05T11:13:57.884Z,247.50
2022-08-05T11:15:11.564Z,230.62
2022-08-05T11:16:00.120Z,208.12
2022-08-05T11:16:57.177Z,135.00
2022-08-05T11:18:00.451Z,84.38
2022-08-05T11:18:48.468Z,61.88
2022-08-05T11:20:10.165Z,45.00
2022-08-05T11:20:49.213Z,33.75
2022-08-05T11:21:49.511Z,39.38
2022-08-05T11:22:49.929Z,50.62
2022-08-05T11:24:04.590Z,56.25
2022-08-05T11:24:50.787Z,56.25
2022-08-05T11:26:05.273Z,61.88
2022-08-05T11:26:49.753Z,78.75
2022-08-05T11:27:51.656Z,95.62
2022-08-05T11:28:47.338Z,129.38
2022-08-05T11:29:47.294Z,151.88
2022-08-05T11:30:47.303Z,163.12
2022-08-05T11:31:58.661Z,157.50
2022-08-05T11:32:48.285Z,151.88
2022-08-05T11:33:48.034Z,151.88
2022-08-05T11:34:54.038Z,185.62
2022-08-05T11:36:08.180Z,180.00
2022-08-05T11:36:52.766Z,129.38
2022-08-05T11:38:28.524Z,112.50
2022-08-05T11:38:51.268Z,185.62
2022-08-05T11:39:48.306Z,219.38
2022-08-05T11:40:47.215Z,146.25
2022-08-05T11:41:56.329Z,135.00
2022-08-05T11:42:48.183Z,90.00
2022-08-05T11:44:05.874Z,95.62
2022-08-05T11:44:53.695Z,95.62
2022-08-05T11:46:29.865Z,146.25
2022-08-05T11:47:09.283Z,202.50
2022-08-05T11:47:48.713Z,213.75
2022-08-05T11:48:47.108Z,163.12
2022-08-05T11:49:49.882Z,112.50
2022-08-05T11:50:47.085Z,118.12
2022-08-05T11:51:49.229Z,140.62
2022-08-05T11:52:49.628Z,191.25
2022-08-05T11:53:47.035Z,219.38
2022-08-05T11:54:48.489Z,225.00
2022-08-05T11:55:48.448Z,281.25
2022-08-05T11:56:50.332Z,309.38
2022-08-05T11:58:09.677Z,270.00
2022-08-05T11:58:53.055Z,208.12
2022-08-05T11:59:49.642Z,202.50
2022-08-05T12:00:47.075Z,185.62
2022-08-05T12:01:47.937Z,174.38
2022-08-05T12:02:46.980Z,146.25
2022-08-05T12:03:56.105Z,135.00
2022-08-05T12:04:59.200Z,123.75
2022-08-05T12:05:47.900Z,123.75
2022-08-05T12:06:48.699Z,118.12
2022-08-05T12:08:08.221Z,106.88
2022-08-05T12:08:50.088Z,90.00
2022-08-05T12:09:53.033Z,84.38
2022-08-05T12:10:48.653Z,78.75
2022-08-05T12:11:46.829Z,73.12
2022-08-05T12:12:59.224Z,67.50
2022-08-05T12:13:49.871Z,67.50
2022-08-05T12:14:47.305Z,67.50
2022-08-05T12:15:49.938Z,61.88
2022-08-05T12:16:46.796Z,61.88
2022-08-05T12:18:04.425Z,61.88
2022-08-05T12:18:49.623Z,61.88
2022-08-05T12:20:27.017Z,56.25
2022-08-05T12:20:47.750Z,61.88
2022-08-05T12:21:46.728Z,67.50
2022-08-05T12:22:46.728Z,67.50
2022-08-05T12:23:47.729Z,78.75
2022-08-05T12:24:49.575Z,106.88
2022-08-05T12:25:46.690Z,146.25
2022-08-05T12:26:46.679Z,191.25
2022-08-05T12:27:53.106Z,213.75
2022-08-05T12:28:47.662Z,208.12
2022-08-05T12:29:46.680Z,225.00
2022-08-05T12:30:47.650Z,225.00
2022-08-05T12:31:53.284Z,241.88
2022-08-05T12:32:50.388Z,219.38
2022-08-05T12:33:46.590Z,286.88
2022-08-05T12:34:46.599Z,309.38
2022-08-05T12:35:46.641Z,292.50
2022-08-05T12:36:46.608Z,298.12
2022-08-05T12:37:46.671Z,298.12
2022-08-05T12:38:46.549Z,309.38
2022-08-05T12:39:48.774Z,253.12
2022-08-05T12:40:47.534Z,236.25
2022-08-05T12:41:46.503Z,270.00
2022-08-05T12:42:46.551Z,253.12
2022-08-05T12:43:46.481Z,253.12
2022-08-05T12:44:47.614Z,185.62
2022-08-05T12:45:50.097Z,151.88
2022-08-05T12:46:46.469Z,129.38
2022-08-05T12:48:17.715Z,135.00
2022-08-05T12:48:47.442Z,168.75
2022-08-05T12:50:03.449Z,191.25
2022-08-05T12:50:47.422Z,168.75
2022-08-05T12:52:12.717Z,202.50
2022-08-05T12:52:47.401Z,225.00
2022-08-05T12:53:47.360Z,202.50
2022-08-05T12:54:47.611Z,174.38